Steinsel, Luxembourg
Current Conditions -  °F | °C
As of 10:20 PM on Friday 31 Oct 2014 (Local Time) from ELLX Reporting Station
Clear Clear  
Wind Chill: 54°   Ceiling: Unl
Heat Index: 54°   Visibility: 3mi
Dew Point: 52°   Wind: 1mph
Humidity: 94%   Direction: 120°ESE
Pressure: 30.24"   Gusts: NA
Location:  49.68°N, 6.12°E
Report Text: ELLX 312120Z 12001KT 5000 R24/0375V0650N NSC 12/11 Q1024 NOSIG
Loading
Personal Weather Stations






























Interactive Weather Map
Tropical Storm Tracking
New forecast layout! Learn more

10-Day Weather Forecast

Advertisements
Track Severe Weather on mobile